sensor_id;sensor_type;location;lat;lon;timestamp;P1;durP1;ratioP1;P2;durP2;ratioP2
56331;SDS011;42237;53.340;6.812;2022-09-02T00:01:40;3.72;;;1.27;;
56331;SDS011;42237;53.340;6.812;2022-09-02T00:04:10;2.60;;;1.30;;
56331;SDS011;42237;53.340;6.812;2022-09-02T00:06:39;3.45;;;1.42;;
56331;SDS011;42237;53.340;6.812;2022-09-02T00:09:07;2.70;;;1.30;;
56331;SDS011;42237;53.340;6.812;2022-09-02T00:11:34;3.70;;;1.40;;
56331;SDS011;42237;53.340;6.812;2022-09-02T00:14:03;6.10;;;1.60;;
56331;SDS011;42237;53.340;6.812;2022-09-02T00:16:31;1.75;;;1.10;;
56331;SDS011;42237;53.340;6.812;2022-09-02T00:18:58;2.90;;;1.30;;
56331;SDS011;42237;53.340;6.812;2022-09-02T00:21:26;3.75;;;1.60;;
56331;SDS011;42237;53.340;6.812;2022-09-02T00:23:53;7.10;;;1.27;;
56331;SDS011;42237;53.340;6.812;2022-09-02T00:26:19;3.22;;;1.50;;
56331;SDS011;42237;53.340;6.812;2022-09-02T00:28:45;4.97;;;1.35;;
56331;SDS011;42237;53.340;6.812;2022-09-02T00:31:12;3.25;;;1.70;;
56331;SDS011;42237;53.340;6.812;2022-09-02T00:33:38;4.03;;;1.40;;
56331;SDS011;42237;53.340;6.812;2022-09-02T00:36:05;2.08;;;1.23;;
56331;SDS011;42237;53.340;6.812;2022-09-02T00:38:32;3.95;;;1.75;;
56331;SDS011;42237;53.340;6.812;2022-09-02T00:41:00;4.75;;;1.58;;
56331;SDS011;42237;53.340;6.812;2022-09-02T00:43:48;4.32;;;1.55;;
56331;SDS011;42237;53.340;6.812;2022-09-02T00:46:18;4.18;;;1.80;;
56331;SDS011;42237;53.340;6.812;2022-09-02T00:51:25;3.78;;;1.58;;
56331;SDS011;42237;53.340;6.812;2022-09-02T00:53:54;6.65;;;1.77;;
56331;SDS011;42237;53.340;6.812;2022-09-02T00:56:25;2.75;;;1.35;;
56331;SDS011;42237;53.340;6.812;2022-09-02T00:58:53;2.67;;;1.30;;
56331;SDS011;42237;53.340;6.812;2022-09-02T01:01:20;4.22;;;1.45;;
56331;SDS011;42237;53.340;6.812;2022-09-02T01:03:47;3.33;;;1.40;;
56331;SDS011;42237;53.340;6.812;2022-09-02T01:06:14;3.05;;;1.20;;
56331;SDS011;42237;53.340;6.812;2022-09-02T01:08:45;2.67;;;1.20;;
56331;SDS011;42237;53.340;6.812;2022-09-02T01:11:14;3.67;;;1.63;;
56331;SDS011;42237;53.340;6.812;2022-09-02T01:13:43;2.25;;;1.55;;
56331;SDS011;42237;53.340;6.812;2022-09-02T01:18:49;2.17;;;1.27;;
56331;SDS011;42237;53.340;6.812;2022-09-02T01:21:16;2.53;;;1.58;;
56331;SDS011;42237;53.340;6.812;2022-09-02T01:23:42;2.92;;;1.45;;
56331;SDS011;42237;53.340;6.812;2022-09-02T01:26:09;4.28;;;1.63;;
56331;SDS011;42237;53.340;6.812;2022-09-02T01:28:35;4.78;;;1.98;;
56331;SDS011;42237;53.340;6.812;2022-09-02T01:31:01;3.60;;;1.52;;
56331;SDS011;42237;53.340;6.812;2022-09-02T01:33:27;2.60;;;1.52;;
56331;SDS011;42237;53.340;6.812;2022-09-02T01:35:53;2.65;;;1.75;;
56331;SDS011;42237;53.340;6.812;2022-09-02T01:38:20;3.65;;;1.50;;
56331;SDS011;42237;53.340;6.812;2022-09-02T01:40:46;5.32;;;1.85;;
56331;SDS011;42237;53.340;6.812;2022-09-02T01:43:14;1.67;;;1.20;;
56331;SDS011;42237;53.340;6.812;2022-09-02T01:45:43;5.45;;;1.52;;
56331;SDS011;42237;53.340;6.812;2022-09-02T01:48:10;3.88;;;1.60;;
56331;SDS011;42237;53.340;6.812;2022-09-02T01:50:38;7.68;;;2.38;;
56331;SDS011;42237;53.340;6.812;2022-09-02T01:53:06;2.20;;;1.48;;
56331;SDS011;42237;53.340;6.812;2022-09-02T01:55:32;4.13;;;1.50;;
56331;SDS011;42237;53.340;6.812;2022-09-02T01:57:58;3.90;;;1.60;;
56331;SDS011;42237;53.340;6.812;2022-09-02T02:00:24;4.35;;;1.65;;
56331;SDS011;42237;53.340;6.812;2022-09-02T02:02:50;4.38;;;1.75;;
56331;SDS011;42237;53.340;6.812;2022-09-02T02:05:17;4.45;;;1.65;;
56331;SDS011;42237;53.340;6.812;2022-09-02T02:07:43;4.07;;;1.88;;
56331;SDS011;42237;53.340;6.812;2022-09-02T02:10:09;3.35;;;1.60;;
56331;SDS011;42237;53.340;6.812;2022-09-02T02:12:36;2.53;;;1.45;;
56331;SDS011;42237;53.340;6.812;2022-09-02T02:15:04;2.17;;;1.42;;
56331;SDS011;42237;53.340;6.812;2022-09-02T02:17:32;3.25;;;1.67;;
56331;SDS011;42237;53.340;6.812;2022-09-02T02:19:58;2.28;;;1.90;;
56331;SDS011;42237;53.340;6.812;2022-09-02T02:22:23;2.25;;;1.35;;
56331;SDS011;42237;53.340;6.812;2022-09-02T02:24:51;4.13;;;1.40;;
56331;SDS011;42237;53.340;6.812;2022-09-02T02:27:18;2.70;;;1.48;;
56331;SDS011;42237;53.340;6.812;2022-09-02T02:29:44;5.40;;;1.90;;
56331;SDS011;42237;53.340;6.812;2022-09-02T02:32:10;3.40;;;1.80;;
56331;SDS011;42237;53.340;6.812;2022-09-02T02:34:36;3.60;;;1.65;;
56331;SDS011;42237;53.340;6.812;2022-09-02T02:37:03;3.03;;;2.00;;
56331;SDS011;42237;53.340;6.812;2022-09-02T02:39:29;2.30;;;1.70;;
56331;SDS011;42237;53.340;6.812;2022-09-02T02:41:55;4.13;;;1.90;;
56331;SDS011;42237;53.340;6.812;2022-09-02T02:44:21;3.78;;;1.88;;
56331;SDS011;42237;53.340;6.812;2022-09-02T02:46:46;3.60;;;2.03;;
56331;SDS011;42237;53.340;6.812;2022-09-02T02:49:12;3.30;;;2.00;;
56331;SDS011;42237;53.340;6.812;2022-09-02T02:51:38;3.60;;;1.83;;
56331;SDS011;42237;53.340;6.812;2022-09-02T02:54:04;3.15;;;1.75;;
56331;SDS011;42237;53.340;6.812;2022-09-02T02:56:30;4.80;;;1.83;;
56331;SDS011;42237;53.340;6.812;2022-09-02T02:58:56;2.90;;;1.80;;
56331;SDS011;42237;53.340;6.812;2022-09-02T03:01:25;3.95;;;1.90;;
56331;SDS011;42237;53.340;6.812;2022-09-02T03:03:51;3.08;;;1.92;;
56331;SDS011;42237;53.340;6.812;2022-09-02T03:06:18;5.07;;;2.00;;
56331;SDS011;42237;53.340;6.812;2022-09-02T03:08:43;4.78;;;2.10;;
56331;SDS011;42237;53.340;6.812;2022-09-02T03:11:13;2.92;;;1.92;;
56331;SDS011;42237;53.340;6.812;2022-09-02T03:13:39;4.00;;;2.45;;
56331;SDS011;42237;53.340;6.812;2022-09-02T03:16:05;4.10;;;2.15;;
56331;SDS011;42237;53.340;6.812;2022-09-02T03:18:31;3.45;;;1.92;;
56331;SDS011;42237;53.340;6.812;2022-09-02T03:20:57;3.90;;;1.83;;
56331;SDS011;42237;53.340;6.812;2022-09-02T03:23:24;7.25;;;1.80;;
56331;SDS011;42237;53.340;6.812;2022-09-02T03:25:49;2.50;;;1.92;;
56331;SDS011;42237;53.340;6.812;2022-09-02T03:28:15;3.88;;;2.03;;
56331;SDS011;42237;53.340;6.812;2022-09-02T03:30:41;3.17;;;1.98;;
56331;SDS011;42237;53.340;6.812;2022-09-02T03:33:08;3.22;;;1.90;;
56331;SDS011;42237;53.340;6.812;2022-09-02T03:35:37;5.45;;;2.50;;
56331;SDS011;42237;53.340;6.812;2022-09-02T03:38:04;4.53;;;2.20;;
56331;SDS011;42237;53.340;6.812;2022-09-02T03:40:30;4.30;;;2.08;;
56331;SDS011;42237;53.340;6.812;2022-09-02T03:42:56;3.03;;;2.15;;
56331;SDS011;42237;53.340;6.812;2022-09-02T03:45:22;2.85;;;1.80;;
56331;SDS011;42237;53.340;6.812;2022-09-02T03:47:48;3.42;;;2.10;;
56331;SDS011;42237;53.340;6.812;2022-09-02T03:50:22;2.38;;;1.90;;
56331;SDS011;42237;53.340;6.812;2022-09-02T03:52:54;3.83;;;2.05;;
56331;SDS011;42237;53.340;6.812;2022-09-02T03:55:20;5.72;;;2.10;;
56331;SDS011;42237;53.340;6.812;2022-09-02T03:57:47;3.63;;;2.50;;
56331;SDS011;42237;53.340;6.812;2022-09-02T04:00:14;5.00;;;2.33;;
56331;SDS011;42237;53.340;6.812;2022-09-02T04:02:41;6.03;;;2.55;;
56331;SDS011;42237;53.340;6.812;2022-09-02T04:05:08;4.32;;;2.13;;
56331;SDS011;42237;53.340;6.812;2022-09-02T04:07:36;3.90;;;2.05;;
56331;SDS011;42237;53.340;6.812;2022-09-02T04:10:02;6.88;;;2.63;;
56331;SDS011;42237;53.340;6.812;2022-09-02T04:12:28;3.95;;;2.20;;
56331;SDS011;42237;53.340;6.812;2022-09-02T04:14:54;3.78;;;2.55;;
56331;SDS011;42237;53.340;6.812;2022-09-02T04:17:20;4.30;;;2.33;;
56331;SDS011;42237;53.340;6.812;2022-09-02T04:19:45;4.45;;;2.33;;
56331;SDS011;42237;53.340;6.812;2022-09-02T04:22:11;17.80;;;2.90;;
56331;SDS011;42237;53.340;6.812;2022-09-02T04:24:37;4.93;;;2.53;;
56331;SDS011;42237;53.340;6.812;2022-09-02T04:27:02;5.63;;;2.70;;
56331;SDS011;42237;53.340;6.812;2022-09-02T04:29:28;3.80;;;2.20;;
56331;SDS011;42237;53.340;6.812;2022-09-02T04:31:55;4.05;;;1.95;;
56331;SDS011;42237;53.340;6.812;2022-09-02T04:34:21;3.60;;;2.20;;
56331;SDS011;42237;53.340;6.812;2022-09-02T04:36:47;4.05;;;2.00;;
56331;SDS011;42237;53.340;6.812;2022-09-02T04:39:13;3.72;;;2.10;;
56331;SDS011;42237;53.340;6.812;2022-09-02T04:41:39;7.70;;;2.22;;
56331;SDS011;42237;53.340;6.812;2022-09-02T04:44:06;3.38;;;2.10;;
56331;SDS011;42237;53.340;6.812;2022-09-02T04:46:32;4.10;;;1.85;;
56331;SDS011;42237;53.340;6.812;2022-09-02T04:48:58;4.28;;;2.50;;
56331;SDS011;42237;53.340;6.812;2022-09-02T04:51:24;3.53;;;2.70;;
56331;SDS011;42237;53.340;6.812;2022-09-02T04:53:51;4.43;;;2.83;;
56331;SDS011;42237;53.340;6.812;2022-09-02T04:56:19;7.53;;;3.83;;
56331;SDS011;42237;53.340;6.812;2022-09-02T04:58:47;6.47;;;3.47;;
56331;SDS011;42237;53.340;6.812;2022-09-02T05:01:17;5.15;;;3.20;;
56331;SDS011;42237;53.340;6.812;2022-09-02T05:03:48;4.35;;;2.90;;
56331;SDS011;42237;53.340;6.812;2022-09-02T05:06:17;4.18;;;3.28;;
56331;SDS011;42237;53.340;6.812;2022-09-02T05:08:47;4.97;;;2.47;;
56331;SDS011;42237;53.340;6.812;2022-09-02T05:11:15;4.65;;;2.70;;
56331;SDS011;42237;53.340;6.812;2022-09-02T05:13:48;4.40;;;2.78;;
56331;SDS011;42237;53.340;6.812;2022-09-02T05:16:18;4.18;;;2.35;;
56331;SDS011;42237;53.340;6.812;2022-09-02T05:18:50;4.35;;;2.42;;
56331;SDS011;42237;53.340;6.812;2022-09-02T05:21:17;4.63;;;2.35;;
56331;SDS011;42237;53.340;6.812;2022-09-02T05:23:43;4.57;;;1.90;;
56331;SDS011;42237;53.340;6.812;2022-09-02T05:26:10;4.63;;;2.10;;
56331;SDS011;42237;53.340;6.812;2022-09-02T05:28:37;4.45;;;2.15;;
56331;SDS011;42237;53.340;6.812;2022-09-02T05:31:05;10.38;;;2.35;;
56331;SDS011;42237;53.340;6.812;2022-09-02T05:33:33;3.28;;;2.50;;
56331;SDS011;42237;53.340;6.812;2022-09-02T05:36:04;4.78;;;2.75;;
56331;SDS011;42237;53.340;6.812;2022-09-02T05:38:31;4.32;;;2.35;;
56331;SDS011;42237;53.340;6.812;2022-09-02T05:40:58;4.45;;;2.55;;
56331;SDS011;42237;53.340;6.812;2022-09-02T05:43:33;4.55;;;2.30;;
56331;SDS011;42237;53.340;6.812;2022-09-02T05:46:04;4.18;;;2.65;;
56331;SDS011;42237;53.340;6.812;2022-09-02T05:48:32;8.43;;;2.17;;
56331;SDS011;42237;53.340;6.812;2022-09-02T05:51:21;4.22;;;2.45;;
56331;SDS011;42237;53.340;6.812;2022-09-02T05:53:50;4.60;;;2.20;;
56331;SDS011;42237;53.340;6.812;2022-09-02T05:56:18;5.30;;;2.70;;
56331;SDS011;42237;53.340;6.812;2022-09-02T05:58:44;5.13;;;2.60;;
56331;SDS011;42237;53.340;6.812;2022-09-02T06:01:10;3.38;;;2.03;;
56331;SDS011;42237;53.340;6.812;2022-09-02T06:03:38;3.35;;;2.40;;
56331;SDS011;42237;53.340;6.812;2022-09-02T06:06:04;3.30;;;2.42;;
56331;SDS011;42237;53.340;6.812;2022-09-02T06:08:31;7.35;;;2.80;;
56331;SDS011;42237;53.340;6.812;2022-09-02T06:10:57;2.83;;;2.30;;
56331;SDS011;42237;53.340;6.812;2022-09-02T06:13:29;4.03;;;2.45;;
56331;SDS011;42237;53.340;6.812;2022-09-02T06:16:00;5.27;;;2.60;;
56331;SDS011;42237;53.340;6.812;2022-09-02T06:18:26;7.82;;;2.40;;
56331;SDS011;42237;53.340;6.812;2022-09-02T06:20:52;4.20;;;2.72;;
56331;SDS011;42237;53.340;6.812;2022-09-02T06:23:18;6.05;;;2.35;;
56331;SDS011;42237;53.340;6.812;2022-09-02T06:25:45;6.45;;;2.58;;
56331;SDS011;42237;53.340;6.812;2022-09-02T06:28:13;4.20;;;2.60;;
56331;SDS011;42237;53.340;6.812;2022-09-02T06:30:40;4.50;;;2.80;;
56331;SDS011;42237;53.340;6.812;2022-09-02T06:33:08;3.25;;;2.30;;
56331;SDS011;42237;53.340;6.812;2022-09-02T06:35:35;3.40;;;2.55;;
56331;SDS011;42237;53.340;6.812;2022-09-02T06:38:05;3.75;;;2.10;;
56331;SDS011;42237;53.340;6.812;2022-09-02T06:40:32;3.13;;;2.15;;
56331;SDS011;42237;53.340;6.812;2022-09-02T06:42:58;3.40;;;2.33;;
56331;SDS011;42237;53.340;6.812;2022-09-02T06:45:24;5.78;;;2.60;;
56331;SDS011;42237;53.340;6.812;2022-09-02T06:47:50;3.40;;;2.42;;
56331;SDS011;42237;53.340;6.812;2022-09-02T06:50:17;6.28;;;2.40;;
56331;SDS011;42237;53.340;6.812;2022-09-02T06:52:44;3.63;;;2.05;;
56331;SDS011;42237;53.340;6.812;2022-09-02T06:55:10;3.67;;;2.60;;
56331;SDS011;42237;53.340;6.812;2022-09-02T06:57:36;3.50;;;2.50;;
56331;SDS011;42237;53.340;6.812;2022-09-02T07:00:04;3.55;;;2.40;;
56331;SDS011;42237;53.340;6.812;2022-09-02T07:02:31;3.35;;;2.03;;
56331;SDS011;42237;53.340;6.812;2022-09-02T07:04:57;4.32;;;2.28;;
56331;SDS011;42237;53.340;6.812;2022-09-02T07:07:35;4.88;;;2.40;;
56331;SDS011;42237;53.340;6.812;2022-09-02T07:10:03;4.68;;;2.08;;
56331;SDS011;42237;53.340;6.812;2022-09-02T07:12:33;3.97;;;2.60;;
56331;SDS011;42237;53.340;6.812;2022-09-02T07:15:00;6.50;;;3.13;;
56331;SDS011;42237;53.340;6.812;2022-09-02T07:17:26;7.15;;;2.50;;
56331;SDS011;42237;53.340;6.812;2022-09-02T07:19:52;4.70;;;2.40;;
56331;SDS011;42237;53.340;6.812;2022-09-02T07:22:19;7.28;;;2.55;;
56331;SDS011;42237;53.340;6.812;2022-09-02T07:24:45;3.78;;;2.50;;
56331;SDS011;42237;53.340;6.812;2022-09-02T07:27:11;4.28;;;2.50;;
56331;SDS011;42237;53.340;6.812;2022-09-02T07:29:38;5.05;;;2.88;;
56331;SDS011;42237;53.340;6.812;2022-09-02T07:32:05;2.80;;;2.42;;
56331;SDS011;42237;53.340;6.812;2022-09-02T07:34:31;7.85;;;2.20;;
56331;SDS011;42237;53.340;6.812;2022-09-02T07:36:57;3.72;;;2.00;;
56331;SDS011;42237;53.340;6.812;2022-09-02T07:39:22;3.00;;;2.03;;
56331;SDS011;42237;53.340;6.812;2022-09-02T07:41:49;5.85;;;2.03;;
56331;SDS011;42237;53.340;6.812;2022-09-02T07:44:16;3.65;;;2.28;;
56331;SDS011;42237;53.340;6.812;2022-09-02T07:46:43;2.63;;;1.90;;
56331;SDS011;42237;53.340;6.812;2022-09-02T07:49:09;4.65;;;2.50;;
56331;SDS011;42237;53.340;6.812;2022-09-02T07:51:37;3.85;;;2.40;;
56331;SDS011;42237;53.340;6.812;2022-09-02T07:54:06;4.72;;;2.58;;
56331;SDS011;42237;53.340;6.812;2022-09-02T07:56:34;7.63;;;2.58;;
56331;SDS011;42237;53.340;6.812;2022-09-02T07:59:00;3.65;;;2.53;;
56331;SDS011;42237;53.340;6.812;2022-09-02T08:01:29;11.13;;;2.55;;
56331;SDS011;42237;53.340;6.812;2022-09-02T08:03:55;4.18;;;2.17;;
56331;SDS011;42237;53.340;6.812;2022-09-02T08:06:21;5.70;;;2.30;;
56331;SDS011;42237;53.340;6.812;2022-09-02T08:08:51;3.97;;;2.35;;
56331;SDS011;42237;53.340;6.812;2022-09-02T08:11:18;3.25;;;2.30;;
56331;SDS011;42237;53.340;6.812;2022-09-02T08:13:44;5.70;;;2.50;;
56331;SDS011;42237;53.340;6.812;2022-09-02T08:16:10;3.05;;;2.30;;
56331;SDS011;42237;53.340;6.812;2022-09-02T08:18:36;4.47;;;2.33;;
56331;SDS011;42237;53.340;6.812;2022-09-02T08:21:04;4.13;;;2.05;;
56331;SDS011;42237;53.340;6.812;2022-09-02T08:23:34;5.53;;;2.50;;
56331;SDS011;42237;53.340;6.812;2022-09-02T08:26:02;4.43;;;2.20;;
56331;SDS011;42237;53.340;6.812;2022-09-02T08:28:29;5.25;;;2.65;;
56331;SDS011;42237;53.340;6.812;2022-09-02T08:30:58;4.10;;;2.47;;
56331;SDS011;42237;53.340;6.812;2022-09-02T08:33:28;4.45;;;2.25;;
56331;SDS011;42237;53.340;6.812;2022-09-02T08:36:00;3.65;;;2.30;;
56331;SDS011;42237;53.340;6.812;2022-09-02T08:38:27;5.10;;;2.55;;
56331;SDS011;42237;53.340;6.812;2022-09-02T08:40:52;7.07;;;2.63;;
56331;SDS011;42237;53.340;6.812;2022-09-02T08:43:33;4.63;;;2.40;;
56331;SDS011;42237;53.340;6.812;2022-09-02T08:46:04;3.35;;;2.70;;
56331;SDS011;42237;53.340;6.812;2022-09-02T08:56:44;3.70;;;2.50;;
56331;SDS011;42237;53.340;6.812;2022-09-02T08:59:12;4.95;;;2.63;;
56331;SDS011;42237;53.340;6.812;2022-09-02T09:18:06;4.97;;;3.00;;
56331;SDS011;42237;53.340;6.812;2022-09-02T09:20:39;5.70;;;3.20;;
56331;SDS011;42237;53.340;6.812;2022-09-02T09:23:40;5.65;;;2.75;;
56331;SDS011;42237;53.340;6.812;2022-09-02T09:28:30;5.53;;;2.85;;
56331;SDS011;42237;53.340;6.812;2022-09-02T09:30:58;4.93;;;2.80;;
56331;SDS011;42237;53.340;6.812;2022-09-02T09:33:27;5.03;;;2.88;;
56331;SDS011;42237;53.340;6.812;2022-09-02T09:35:53;6.95;;;3.25;;
56331;SDS011;42237;53.340;6.812;2022-09-02T09:38:31;6.68;;;3.33;;
56331;SDS011;42237;53.340;6.812;2022-09-02T09:41:18;6.85;;;4.00;;
56331;SDS011;42237;53.340;6.812;2022-09-02T09:43:48;10.55;;;4.25;;
56331;SDS011;42237;53.340;6.812;2022-09-02T09:48:53;5.22;;;4.50;;
56331;SDS011;42237;53.340;6.812;2022-09-02T09:51:18;5.07;;;3.00;;
56331;SDS011;42237;53.340;6.812;2022-09-02T09:53:44;5.55;;;3.60;;
56331;SDS011;42237;53.340;6.812;2022-09-02T09:58:45;4.65;;;3.45;;
56331;SDS011;42237;53.340;6.812;2022-09-02T10:04:03;5.22;;;2.90;;
56331;SDS011;42237;53.340;6.812;2022-09-02T10:08:59;6.68;;;3.25;;
56331;SDS011;42237;53.340;6.812;2022-09-02T10:14:31;6.35;;;3.25;;
56331;SDS011;42237;53.340;6.812;2022-09-02T10:23:04;6.53;;;4.10;;
56331;SDS011;42237;53.340;6.812;2022-09-02T10:25:55;4.75;;;3.20;;
56331;SDS011;42237;53.340;6.812;2022-09-02T10:42:13;8.32;;;3.13;;
56331;SDS011;42237;53.340;6.812;2022-09-02T10:50:55;4.65;;;2.15;;
56331;SDS011;42237;53.340;6.812;2022-09-02T10:56:31;4.30;;;2.55;;
56331;SDS011;42237;53.340;6.812;2022-09-02T10:59:04;4.32;;;2.53;;
56331;SDS011;42237;53.340;6.812;2022-09-02T11:01:47;5.72;;;3.13;;
56331;SDS011;42237;53.340;6.812;2022-09-02T11:07:08;3.78;;;2.65;;
56331;SDS011;42237;53.340;6.812;2022-09-02T11:09:55;7.65;;;2.60;;
56331;SDS011;42237;53.340;6.812;2022-09-02T11:12:30;5.25;;;2.60;;
56331;SDS011;42237;53.340;6.812;2022-09-02T11:20:29;4.07;;;2.47;;
56331;SDS011;42237;53.340;6.812;2022-09-02T11:23:13;4.47;;;2.30;;
56331;SDS011;42237;53.340;6.812;2022-09-02T11:28:56;9.02;;;1.90;;
56331;SDS011;42237;53.340;6.812;2022-09-02T11:34:04;2.70;;;2.00;;
56331;SDS011;42237;53.340;6.812;2022-09-02T11:36:41;2.38;;;2.00;;
56331;SDS011;42237;53.340;6.812;2022-09-02T11:39:11;5.38;;;2.42;;
56331;SDS011;42237;53.340;6.812;2022-09-02T11:41:56;5.00;;;2.20;;
56331;SDS011;42237;53.340;6.812;2022-09-02T11:55:21;3.15;;;2.05;;
56331;SDS011;42237;53.340;6.812;2022-09-02T11:57:53;2.72;;;1.80;;
56331;SDS011;42237;53.340;6.812;2022-09-02T12:02:54;8.68;;;2.20;;
56331;SDS011;42237;53.340;6.812;2022-09-02T12:07:54;3.95;;;2.20;;
56331;SDS011;42237;53.340;6.812;2022-09-02T12:21:18;4.63;;;2.08;;
56331;SDS011;42237;53.340;6.812;2022-09-02T12:31:42;2.53;;;1.63;;
56331;SDS011;42237;53.340;6.812;2022-09-02T12:42:02;2.88;;;1.73;;
56331;SDS011;42237;53.340;6.812;2022-09-02T12:45:02;2.47;;;1.75;;
56331;SDS011;42237;53.340;6.812;2022-09-02T12:50:27;5.40;;;2.00;;
56331;SDS011;42237;53.340;6.812;2022-09-02T12:58:32;2.25;;;1.50;;
56331;SDS011;42237;53.340;6.812;2022-09-02T13:06:42;2.00;;;1.45;;
56331;SDS011;42237;53.340;6.812;2022-09-02T13:15:55;3.35;;;1.70;;
56331;SDS011;42237;53.340;6.812;2022-09-02T13:23:48;4.78;;;1.80;;
56331;SDS011;42237;53.340;6.812;2022-09-02T13:26:25;4.78;;;1.60;;
56331;SDS011;42237;53.340;6.812;2022-09-02T13:31:36;4.55;;;1.40;;
56331;SDS011;42237;53.340;6.812;2022-09-02T13:34:12;6.18;;;1.45;;
56331;SDS011;42237;53.340;6.812;2022-09-02T13:39:09;1.98;;;1.40;;
56331;SDS011;42237;53.340;6.812;2022-09-02T13:41:41;1.88;;;1.10;;
56331;SDS011;42237;53.340;6.812;2022-09-02T13:44:26;3.80;;;1.50;;
56331;SDS011;42237;53.340;6.812;2022-09-02T13:49:46;3.13;;;1.20;;
56331;SDS011;42237;53.340;6.812;2022-09-02T13:52:19;2.03;;;1.30;;
56331;SDS011;42237;53.340;6.812;2022-09-02T13:54:47;4.95;;;1.50;;
56331;SDS011;42237;53.340;6.812;2022-09-02T13:57:27;4.53;;;1.70;;
56331;SDS011;42237;53.340;6.812;2022-09-02T14:02:25;4.03;;;1.27;;
56331;SDS011;42237;53.340;6.812;2022-09-02T14:07:46;3.33;;;1.30;;
56331;SDS011;42237;53.340;6.812;2022-09-02T14:10:14;3.10;;;1.08;;
56331;SDS011;42237;53.340;6.812;2022-09-02T14:12:42;2.40;;;1.00;;
56331;SDS011;42237;53.340;6.812;2022-09-02T14:15:11;3.78;;;1.30;;
56331;SDS011;42237;53.340;6.812;2022-09-02T14:17:39;1.67;;;1.30;;
56331;SDS011;42237;53.340;6.812;2022-09-02T14:20:09;6.38;;;1.10;;
56331;SDS011;42237;53.340;6.812;2022-09-02T14:22:43;4.70;;;1.50;;
56331;SDS011;42237;53.340;6.812;2022-09-02T14:25:22;3.00;;;1.23;;
56331;SDS011;42237;53.340;6.812;2022-09-02T14:27:51;1.20;;;1.00;;
56331;SDS011;42237;53.340;6.812;2022-09-02T14:30:38;4.57;;;1.30;;
56331;SDS011;42237;53.340;6.812;2022-09-02T14:38:48;2.80;;;1.20;;
56331;SDS011;42237;53.340;6.812;2022-09-02T14:41:34;10.70;;;1.65;;
56331;SDS011;42237;53.340;6.812;2022-09-02T14:44:08;2.97;;;1.00;;
56331;SDS011;42237;53.340;6.812;2022-09-02T14:47:02;3.53;;;1.30;;
56331;SDS011;42237;53.340;6.812;2022-09-02T14:51:56;4.18;;;1.40;;
56331;SDS011;42237;53.340;6.812;2022-09-02T14:54:43;3.58;;;1.23;;
56331;SDS011;42237;53.340;6.812;2022-09-02T14:57:25;3.60;;;1.40;;
56331;SDS011;42237;53.340;6.812;2022-09-02T14:59:58;5.03;;;1.27;;
56331;SDS011;42237;53.340;6.812;2022-09-02T15:02:39;1.73;;;1.20;;
56331;SDS011;42237;53.340;6.812;2022-09-02T15:05:08;3.13;;;1.40;;
56331;SDS011;42237;53.340;6.812;2022-09-02T15:07:41;2.67;;;1.23;;
56331;SDS011;42237;53.340;6.812;2022-09-02T15:10:06;3.00;;;1.20;;
56331;SDS011;42237;53.340;6.812;2022-09-02T15:12:37;2.05;;;1.00;;
56331;SDS011;42237;53.340;6.812;2022-09-02T15:15:10;4.70;;;1.25;;
56331;SDS011;42237;53.340;6.812;2022-09-02T15:17:36;4.13;;;1.08;;
56331;SDS011;42237;53.340;6.812;2022-09-02T15:20:02;2.97;;;1.05;;
56331;SDS011;42237;53.340;6.812;2022-09-02T15:22:30;2.33;;;1.17;;
56331;SDS011;42237;53.340;6.812;2022-09-02T15:24:56;5.82;;;1.50;;
56331;SDS011;42237;53.340;6.812;2022-09-02T15:27:22;4.53;;;1.30;;
56331;SDS011;42237;53.340;6.812;2022-09-02T15:29:50;7.20;;;1.55;;
56331;SDS011;42237;53.340;6.812;2022-09-02T15:32:25;2.75;;;1.27;;
56331;SDS011;42237;53.340;6.812;2022-09-02T15:34:52;7.38;;;1.70;;
56331;SDS011;42237;53.340;6.812;2022-09-02T15:37:18;3.08;;;1.23;;
56331;SDS011;42237;53.340;6.812;2022-09-02T15:39:43;3.97;;;1.63;;
56331;SDS011;42237;53.340;6.812;2022-09-02T15:42:09;2.63;;;1.50;;
56331;SDS011;42237;53.340;6.812;2022-09-02T15:44:35;5.00;;;1.70;;
56331;SDS011;42237;53.340;6.812;2022-09-02T15:47:01;3.15;;;1.10;;
56331;SDS011;42237;53.340;6.812;2022-09-02T15:49:27;4.88;;;1.30;;
56331;SDS011;42237;53.340;6.812;2022-09-02T15:51:53;4.20;;;1.60;;
56331;SDS011;42237;53.340;6.812;2022-09-02T15:54:22;5.25;;;1.45;;
56331;SDS011;42237;53.340;6.812;2022-09-02T15:56:52;4.15;;;1.20;;
56331;SDS011;42237;53.340;6.812;2022-09-02T15:59:22;3.25;;;1.35;;
56331;SDS011;42237;53.340;6.812;2022-09-02T16:01:53;2.47;;;1.25;;
56331;SDS011;42237;53.340;6.812;2022-09-02T16:04:23;3.80;;;1.50;;
56331;SDS011;42237;53.340;6.812;2022-09-02T16:06:51;6.00;;;1.73;;
56331;SDS011;42237;53.340;6.812;2022-09-02T16:09:17;2.38;;;1.15;;
56331;SDS011;42237;53.340;6.812;2022-09-02T16:11:47;2.45;;;1.50;;
56331;SDS011;42237;53.340;6.812;2022-09-02T16:14:14;2.22;;;1.58;;
56331;SDS011;42237;53.340;6.812;2022-09-02T16:16:43;4.03;;;1.92;;
56331;SDS011;42237;53.340;6.812;2022-09-02T16:19:10;2.45;;;1.40;;
56331;SDS011;42237;53.340;6.812;2022-09-02T16:21:36;6.78;;;2.13;;
56331;SDS011;42237;53.340;6.812;2022-09-02T16:24:10;5.07;;;1.40;;
56331;SDS011;42237;53.340;6.812;2022-09-02T16:26:37;2.50;;;1.52;;
56331;SDS011;42237;53.340;6.812;2022-09-02T16:29:07;4.20;;;1.92;;
56331;SDS011;42237;53.340;6.812;2022-09-02T16:31:37;3.28;;;1.85;;
56331;SDS011;42237;53.340;6.812;2022-09-02T16:34:11;3.80;;;1.75;;
56331;SDS011;42237;53.340;6.812;2022-09-02T16:36:47;2.92;;;1.55;;
56331;SDS011;42237;53.340;6.812;2022-09-02T16:39:16;4.78;;;1.65;;
56331;SDS011;42237;53.340;6.812;2022-09-02T16:41:43;5.18;;;1.58;;
56331;SDS011;42237;53.340;6.812;2022-09-02T16:44:25;3.42;;;1.50;;
56331;SDS011;42237;53.340;6.812;2022-09-02T16:49:48;3.50;;;1.60;;
56331;SDS011;42237;53.340;6.812;2022-09-02T16:52:33;3.38;;;1.65;;
56331;SDS011;42237;53.340;6.812;2022-09-02T16:55:09;3.60;;;1.73;;
56331;SDS011;42237;53.340;6.812;2022-09-02T16:57:53;3.22;;;1.52;;
56331;SDS011;42237;53.340;6.812;2022-09-02T17:00:49;2.45;;;1.67;;
56331;SDS011;42237;53.340;6.812;2022-09-02T17:03:19;6.50;;;1.58;;
56331;SDS011;42237;53.340;6.812;2022-09-02T17:05:52;4.50;;;1.70;;
56331;SDS011;42237;53.340;6.812;2022-09-02T17:08:25;3.38;;;1.65;;
56331;SDS011;42237;53.340;6.812;2022-09-02T17:14:03;4.10;;;1.60;;
56331;SDS011;42237;53.340;6.812;2022-09-02T17:16:48;4.82;;;1.90;;
56331;SDS011;42237;53.340;6.812;2022-09-02T17:19:24;3.20;;;1.98;;
56331;SDS011;42237;53.340;6.812;2022-09-02T17:21:54;3.75;;;1.55;;
56331;SDS011;42237;53.340;6.812;2022-09-02T17:24:26;5.07;;;1.70;;
56331;SDS011;42237;53.340;6.812;2022-09-02T17:27:06;4.63;;;1.70;;
56331;SDS011;42237;53.340;6.812;2022-09-02T17:29:34;6.80;;;2.05;;
56331;SDS011;42237;53.340;6.812;2022-09-02T17:32:06;3.28;;;1.60;;
56331;SDS011;42237;53.340;6.812;2022-09-02T17:35:15;3.78;;;1.40;;
56331;SDS011;42237;53.340;6.812;2022-09-02T17:37:56;8.02;;;1.73;;
56331;SDS011;42237;53.340;6.812;2022-09-02T17:40:29;3.40;;;1.52;;
56331;SDS011;42237;53.340;6.812;2022-09-02T17:43:19;4.68;;;1.70;;
56331;SDS011;42237;53.340;6.812;2022-09-02T17:45:54;3.97;;;1.55;;
56331;SDS011;42237;53.340;6.812;2022-09-02T17:48:41;4.30;;;1.70;;
56331;SDS011;42237;53.340;6.812;2022-09-02T17:51:19;6.32;;;2.42;;
56331;SDS011;42237;53.340;6.812;2022-09-02T17:53:52;4.53;;;1.60;;
56331;SDS011;42237;53.340;6.812;2022-09-02T18:05:08;5.53;;;1.58;;
56331;SDS011;42237;53.340;6.812;2022-09-02T18:10:49;3.33;;;1.50;;
56331;SDS011;42237;53.340;6.812;2022-09-02T18:13:36;2.70;;;1.63;;
56331;SDS011;42237;53.340;6.812;2022-09-02T18:33:31;6.65;;;2.22;;
56331;SDS011;42237;53.340;6.812;2022-09-02T18:36:08;5.88;;;2.28;;
56331;SDS011;42237;53.340;6.812;2022-09-02T18:46:58;5.85;;;2.03;;